Time;durP1;ratioP1;P1;durP2;ratioP2;P2;SDS_P1;SDS_P2;PMS_P1;PMS_P2;Temp;Humidity;BMP_temperature;BMP_pressure;BME280_temperature;BME280_humidity;BME280_pressure;Samples;Min_cycle;Max_cycle;Signal;HPM_P1;HPM_P2
2022/05/13 00:01:42;;;;;;;7.87;4.73;;;13.90;89.80;;;;;;5091826;28;20472;-76
2022/05/13 00:04:11;;;;;;;11.37;4.37;;;13.90;89.80;;;;;;5091840;28;20456;-76
2022/05/13 00:06:40;;;;;;;5.53;3.93;;;13.80;89.80;;;;;;5092963;28;20505;-76
2022/05/13 00:09:08;;;;;;;8.40;6.10;;;13.90;89.90;;;;;;5091978;28;20462;-76
2022/05/13 00:11:36;;;;;;;6.00;4.03;;;13.80;89.90;;;;;;5091615;28;20564;-76
2022/05/13 00:14:05;;;;;;;6.27;4.20;;;13.80;90.00;;;;;;5091671;28;20538;-76
2022/05/13 00:16:35;;;;;;;7.37;4.37;;;13.70;89.90;;;;;;5091606;28;20464;-76
2022/05/13 00:19:04;;;;;;;5.90;4.00;;;13.70;89.90;;;;;;5091741;28;20456;-76
2022/05/13 00:21:33;;;;;;;7.63;4.13;;;13.60;89.80;;;;;;5091666;28;20471;-76
2022/05/13 00:24:02;;;;;;;8.07;4.47;;;13.60;89.80;;;;;;5092257;28;20858;-75
2022/05/13 00:26:30;;;;;;;3.70;3.30;;;13.60;89.80;;;;;;5095340;28;20494;-76
2022/05/13 00:28:58;;;;;;;5.80;4.20;;;13.60;89.80;;;;;;5096814;28;20935;-76
2022/05/13 00:31:26;;;;;;;4.97;4.00;;;13.60;89.70;;;;;;5096743;28;20464;-75
2022/05/13 00:33:54;;;;;;;6.60;3.70;;;13.50;89.60;;;;;;5095357;28;20458;-76
2022/05/13 00:36:22;;;;;;;7.23;4.40;;;13.50;89.60;;;;;;5096855;28;20517;-76
2022/05/13 00:38:52;;;;;;;4.20;3.50;;;13.50;89.50;;;;;;5096400;28;20817;-76
2022/05/13 00:41:20;;;;;;;6.93;4.10;;;13.50;89.50;;;;;;5096460;28;20464;-76
2022/05/13 00:43:51;;;;;;;8.50;4.40;;;13.40;89.40;;;;;;5096530;28;20449;-76
2022/05/13 00:46:19;;;;;;;4.27;3.83;;;13.40;89.40;;;;;;5095129;28;20432;-76
2022/05/13 00:48:49;;;;;;;4.73;3.40;;;13.40;89.30;;;;;;5096183;28;20463;-76
2022/05/13 00:51:19;;;;;;;5.97;3.50;;;13.30;89.10;;;;;;5094893;28;20472;-76
2022/05/13 00:53:48;;;;;;;4.80;3.67;;;13.30;89.20;;;;;;5094960;28;20502;-76
2022/05/13 00:56:19;;;;;;;9.50;3.83;;;13.30;89.10;;;;;;5094780;28;20469;-76
2022/05/13 00:58:51;;;;;;;6.27;3.60;;;13.30;89.10;;;;;;5096213;28;20905;-76
2022/05/13 01:01:19;;;;;;;4.00;3.60;;;13.30;89.00;;;;;;5094831;28;20455;-76
2022/05/13 01:03:49;;;;;;;5.00;4.17;;;13.20;89.50;;;;;;5094890;28;20543;-77
2022/05/13 01:06:21;;;;;;;6.00;3.57;;;13.20;88.90;;;;;;5096227;28;20441;-77
2022/05/13 01:08:50;;;;;;;4.10;3.43;;;13.20;88.90;;;;;;5094938;28;20452;-77
2022/05/13 01:11:25;;;;;;;4.40;3.70;;;13.10;88.70;;;;;;5095784;28;20551;-76
2022/05/13 01:13:59;;;;;;;3.70;3.23;;;13.10;88.70;;;;;;5095762;28;20908;-76
2022/05/13 01:16:27;;;;;;;4.70;3.50;;;13.10;88.60;;;;;;5094948;28;20534;-76
2022/05/13 01:18:55;;;;;;;5.77;3.20;;;13.00;89.20;;;;;;5095866;28;20439;-76
2022/05/13 01:21:29;;;;;;;5.03;3.50;;;13.00;88.50;;;;;;5094431;28;20476;-76
2022/05/13 01:23:59;;;;;;;5.10;3.13;;;12.90;88.50;;;;;;5095990;28;20439;-76
2022/05/13 01:26:30;;;;;;;6.33;3.40;;;12.90;88.50;;;;;;5094295;28;20505;-76
2022/05/13 01:28:58;;;;;;;5.63;3.60;;;12.90;88.40;;;;;;5094178;28;20447;-76
2022/05/13 01:31:30;;;;;;;5.47;3.77;;;12.80;88.30;;;;;;5095465;28;20462;-76
2022/05/13 01:34:00;;;;;;;4.97;3.73;;;12.80;88.40;;;;;;5094117;28;20479;-76
2022/05/13 01:36:29;;;;;;;4.83;3.90;;;12.70;88.20;;;;;;5094187;28;20802;-76
2022/05/13 01:38:59;;;;;;;4.23;3.83;;;12.60;88.20;;;;;;5093801;28;20560;-75
2022/05/13 01:41:28;;;;;;;4.40;4.00;;;12.60;88.10;;;;;;5093913;28;21001;-76
2022/05/13 01:43:57;;;;;;;4.93;3.30;;;12.60;88.20;;;;;;5093984;28;20440;-76
2022/05/13 01:46:26;;;;;;;5.97;3.87;;;12.60;88.20;;;;;;5093839;28;20444;-76
2022/05/13 01:48:55;;;;;;;4.80;4.03;;;12.50;88.20;;;;;;5093747;28;20455;-76
2022/05/13 01:51:24;;;;;;;6.30;3.67;;;12.50;88.20;;;;;;5093579;28;20823;-76
2022/05/13 01:53:53;;;;;;;4.33;3.93;;;12.40;88.10;;;;;;5094910;28;20929;-76
2022/05/13 01:56:23;;;;;;;5.17;4.43;;;12.40;88.20;;;;;;5093683;28;20461;-76
2022/05/13 01:58:51;;;;;;;4.23;3.80;;;12.40;88.20;;;;;;5093527;28;20440;-76
2022/05/13 02:01:19;;;;;;;5.03;4.27;;;12.30;88.20;;;;;;5093509;28;20480;-76
2022/05/13 02:03:47;;;;;;;4.70;4.17;;;12.30;88.30;;;;;;5093608;28;20447;-76
2022/05/13 02:06:20;;;;;;;4.20;3.80;;;12.20;88.30;;;;;;5093500;28;20807;-76
2022/05/13 02:08:48;;;;;;;5.30;4.23;;;12.20;88.40;;;;;;5093413;28;20432;-76
2022/05/13 02:11:18;;;;;;;5.17;4.33;;;12.20;88.40;;;;;;5093243;28;20464;-76
2022/05/13 02:13:47;;;;;;;4.67;4.27;;;12.10;88.40;;;;;;5094562;28;20444;-76
2022/05/13 02:16:15;;;;;;;8.53;4.40;;;12.10;88.50;;;;;;5094652;28;20547;-76
2022/05/13 02:18:44;;;;;;;6.80;4.13;;;12.00;88.40;;;;;;5093237;28;20472;-76
2022/05/13 02:21:13;;;;;;;5.53;4.37;;;12.00;88.50;;;;;;5093018;28;20472;-76
2022/05/13 02:23:41;;;;;;;5.50;4.63;;;12.00;88.60;;;;;;5093116;28;20450;-76
2022/05/13 02:26:12;;;;;;;5.20;4.33;;;11.90;88.50;;;;;;5092999;28;21010;-76
2022/05/13 02:28:41;;;;;;;5.73;4.50;;;11.90;88.70;;;;;;5093234;28;20929;-76
2022/05/13 02:31:12;;;;;;;6.10;4.33;;;11.90;88.80;;;;;;5092919;28;20506;-76
2022/05/13 02:33:42;;;;;;;6.37;4.20;;;11.90;88.90;;;;;;5094586;28;20428;-76
2022/05/13 02:36:11;;;;;;;7.90;4.67;;;11.80;88.90;;;;;;5092778;28;20570;-76
2022/05/13 02:38:40;;;;;;;5.10;4.60;;;11.80;89.00;;;;;;5094142;28;20458;-76
2022/05/13 02:41:15;;;;;;;6.10;4.60;;;11.70;89.00;;;;;;5092806;28;20547;-76
2022/05/13 02:43:46;;;;;;;5.43;4.90;;;11.70;89.10;;;;;;5092801;28;20455;-76
2022/05/13 02:46:18;;;;;;;5.53;4.77;;;11.70;89.20;;;;;;5092840;28;20483;-76
2022/05/13 02:48:47;;;;;;;5.50;4.97;;;11.70;89.20;;;;;;5092573;28;20429;-76
2022/05/13 02:51:16;;;;;;;5.97;4.77;;;11.60;89.20;;;;;;5092653;28;20468;-76
2022/05/13 02:53:44;;;;;;;5.00;4.50;;;11.60;89.20;;;;;;5092835;28;20553;-76
2022/05/13 02:56:12;;;;;;;5.93;5.13;;;11.60;89.30;;;;;;5092479;28;20468;-76
2022/05/13 02:58:44;;;;;;;9.73;4.73;;;11.50;89.30;;;;;;5094051;28;20440;-75
2022/05/13 03:01:15;;;;;;;5.73;5.23;;;11.50;89.40;;;;;;5093913;28;20485;-75
2022/05/13 03:03:46;;;;;;;7.10;4.70;;;11.50;90.00;;;;;;5094038;28;20417;-76
2022/05/13 03:06:14;;;;;;;5.97;4.87;;;11.50;90.10;;;;;;5092615;28;20512;-76
2022/05/13 03:08:42;;;;;;;6.27;4.87;;;11.50;89.80;;;;;;5092575;28;20440;-75
2022/05/13 03:11:11;;;;;;;6.70;4.70;;;11.50;89.90;;;;;;5092559;28;21055;-75
2022/05/13 03:13:40;;;;;;;6.20;5.07;;;11.50;90.00;;;;;;5092296;28;20440;-76
2022/05/13 03:16:14;;;;;;;7.57;5.30;;;11.50;90.00;;;;;;5092280;28;20471;-76
2022/05/13 03:18:44;;;;;;;5.90;5.20;;;11.40;90.00;;;;;;5092323;28;20815;-76
2022/05/13 03:21:12;;;;;;;5.83;5.07;;;11.40;90.10;;;;;;5092236;28;20546;-76
2022/05/13 03:23:43;;;;;;;6.27;5.40;;;11.40;90.10;;;;;;5093462;28;20455;-76
2022/05/13 03:26:13;;;;;;;6.40;4.80;;;11.40;90.10;;;;;;5093752;28;20431;-76
2022/05/13 03:28:41;;;;;;;5.80;5.20;;;11.40;90.20;;;;;;5092225;28;20990;-75
2022/05/13 03:31:10;;;;;;;5.40;4.90;;;11.40;90.20;;;;;;5093444;28;20455;-76
2022/05/13 03:33:39;;;;;;;6.23;4.77;;;11.40;90.30;;;;;;5092197;28;20454;-76
2022/05/13 03:36:12;;;;;;;5.40;4.90;;;11.40;90.30;;;;;;5092086;28;20440;-76
2022/05/13 03:38:41;;;;;;;7.93;5.63;;;11.40;90.30;;;;;;5093449;28;20448;-75
2022/05/13 03:41:10;;;;;;;4.60;4.30;;;11.40;90.40;;;;;;5092141;28;20478;-76
2022/05/13 03:43:38;;;;;;;5.83;5.10;;;11.40;90.40;;;;;;5091976;28;20523;-76
2022/05/13 03:46:07;;;;;;;7.50;5.50;;;11.40;90.40;;;;;;5093220;28;20444;-75
2022/05/13 03:48:35;;;;;;;6.03;5.43;;;11.50;90.50;;;;;;5092509;28;20428;-75
2022/05/13 03:51:03;;;;;;;9.53;5.80;;;11.50;90.50;;;;;;5092148;28;20551;-76
2022/05/13 03:53:33;;;;;;;5.13;4.63;;;11.50;90.60;;;;;;5093800;28;20432;-75
2022/05/13 03:56:02;;;;;;;7.57;5.13;;;11.50;90.60;;;;;;5093670;28;20475;-76
2022/05/13 03:58:30;;;;;;;6.23;5.43;;;11.50;90.60;;;;;;5093254;28;20498;-76
2022/05/13 04:00:59;;;;;;;6.27;5.07;;;11.50;90.60;;;;;;5095860;28;21074;-76
2022/05/13 04:03:27;;;;;;;7.50;4.80;;;11.50;90.70;;;;;;5095983;28;20446;-76
2022/05/13 04:08:57;;;;;;;6.00;5.40;;;11.50;90.70;;;;;;5096479;28;20454;-76
2022/05/13 04:11:26;;;;;;;5.53;4.93;;;11.50;90.80;;;;;;5097185;28;20551;-76
2022/05/13 04:16:40;;;;;;;5.07;4.57;;;11.50;90.80;;;;;;5096845;28;20409;-75
2022/05/13 04:19:08;;;;;;;6.80;4.50;;;11.60;90.90;;;;;;5095590;28;20463;-75
2022/05/13 04:21:39;;;;;;;4.87;4.40;;;11.60;90.90;;;;;;5094270;28;20468;-76
2022/05/13 04:24:12;;;;;;;5.43;4.93;;;11.60;90.90;;;;;;5096138;28;20439;-75
2022/05/13 04:26:40;;;;;;;5.83;5.33;;;11.60;91.00;;;;;;5095839;28;20490;-75
2022/05/13 04:29:08;;;;;;;10.30;5.83;;;11.60;91.00;;;;;;5094312;28;21024;-75
2022/05/13 04:31:38;;;;;;;7.47;5.20;;;11.70;91.00;;;;;;5094353;28;20504;-76
2022/05/13 04:34:08;;;;;;;6.40;4.70;;;11.70;91.00;;;;;;5094339;28;20505;-76
2022/05/13 04:36:37;;;;;;;6.63;5.03;;;11.70;91.00;;;;;;5095838;28;20442;-76
2022/05/13 04:39:05;;;;;;;8.53;4.80;;;11.70;91.10;;;;;;5095472;28;20480;-75
2022/05/13 04:44:21;;;;;;;6.37;4.63;;;11.80;91.10;;;;;;5096772;28;20443;-76
2022/05/13 04:46:49;;;;;;;4.53;4.10;;;11.80;91.10;;;;;;5103057;28;20428;-76
2022/05/13 04:49:17;;;;;;;12.13;4.30;;;11.80;91.10;;;;;;5107468;28;20447;-75
2022/05/13 04:51:50;;;;;;;5.10;4.23;;;11.90;91.10;;;;;;5112506;28;20460;-76
2022/05/13 04:54:18;;;;;;;6.70;4.47;;;11.90;91.10;;;;;;5105197;28;20535;-76
2022/05/13 04:56:48;;;;;;;7.77;5.10;;;12.00;91.20;;;;;;5102284;28;20508;-76
2022/05/13 04:59:16;;;;;;;5.33;4.53;;;12.00;91.20;;;;;;5104206;28;20464;-75
2022/05/13 05:01:44;;;;;;;6.03;4.93;;;12.00;91.20;;;;;;5101618;28;20494;-75
2022/05/13 05:04:13;;;;;;;6.67;4.80;;;12.00;91.20;;;;;;5097741;28;20456;-76
2022/05/13 05:06:42;;;;;;;5.50;4.00;;;12.10;91.20;;;;;;5098481;28;21000;-75
2022/05/13 05:09:10;;;;;;;5.60;4.03;;;12.10;91.20;;;;;;5096926;28;20437;-75
2022/05/13 05:11:38;;;;;;;7.30;4.73;;;12.10;91.20;;;;;;5095503;28;20471;-76
2022/05/13 05:14:07;;;;;;;7.90;4.60;;;12.10;91.20;;;;;;5103646;28;20450;-76
2022/05/13 05:16:41;;;;;;;6.80;4.60;;;12.10;91.20;;;;;;5101654;28;20450;-75
2022/05/13 05:19:10;;;;;;;6.53;4.70;;;12.20;91.20;;;;;;5104449;28;20464;-75
2022/05/13 05:21:38;;;;;;;7.70;5.07;;;12.20;91.30;;;;;;5107574;28;20467;-75
2022/05/13 05:24:07;;;;;;;5.97;4.50;;;12.20;91.30;;;;;;5102931;28;20448;-75
2022/05/13 05:26:35;;;;;;;6.60;4.43;;;12.20;91.30;;;;;;5104581;28;20469;-75
2022/05/13 05:29:03;;;;;;;10.80;4.53;;;12.20;91.30;;;;;;5112658;28;21007;-75
2022/05/13 05:31:32;;;;;;;5.40;4.37;;;12.20;91.30;;;;;;5115831;28;20557;-75
2022/05/13 05:34:01;;;;;;;6.77;4.43;;;12.30;91.40;;;;;;5114583;28;20462;-75
2022/05/13 05:36:29;;;;;;;6.70;4.50;;;12.30;91.40;;;;;;5114748;28;20450;-75
2022/05/13 05:38:57;;;;;;;5.60;4.70;;;12.30;91.40;;;;;;5115587;28;20475;-75
2022/05/13 05:41:26;;;;;;;7.03;5.20;;;12.40;91.50;;;;;;5115631;28;20458;-75
2022/05/13 05:43:54;;;;;;;8.27;4.83;;;12.40;91.50;;;;;;5109860;28;20485;-75
2022/05/13 05:46:22;;;;;;;8.20;5.30;;;12.40;91.50;;;;;;5103667;28;20442;-75
2022/05/13 05:48:51;;;;;;;5.23;3.97;;;12.40;91.50;;;;;;5103663;28;20535;-75
2022/05/13 05:51:20;;;;;;;10.10;5.13;;;12.40;91.80;;;;;;5101467;28;20495;-74
2022/05/13 05:59:19;;;;;;;6.43;4.27;;;12.40;91.60;;;;;;5103361;28;20459;-75
2022/05/13 06:01:47;;;;;;;10.23;4.93;;;12.50;91.70;;;;;;5102261;28;20551;-75
2022/05/13 06:04:21;;;;;;;8.27;4.40;;;12.50;91.80;;;;;;5101217;28;20449;-75
2022/05/13 06:06:49;;;;;;;7.63;4.00;;;12.50;91.80;;;;;;5102244;28;20439;-75
2022/05/13 06:09:18;;;;;;;6.37;4.10;;;12.50;91.80;;;;;;5104455;28;21035;-75
2022/05/13 06:11:46;;;;;;;8.23;4.57;;;12.50;91.80;;;;;;5103348;28;20554;-75
2022/05/13 06:14:15;;;;;;;8.43;3.83;;;12.50;91.80;;;;;;5102716;28;20439;-75
2022/05/13 06:16:44;;;;;;;5.00;4.03;;;12.50;91.80;;;;;;5102995;28;20478;-75
2022/05/13 06:19:12;;;;;;;8.97;3.73;;;12.60;91.90;;;;;;5101545;28;20576;-75
2022/05/13 06:21:42;;;;;;;8.10;4.40;;;12.60;92.00;;;;;;5102580;28;20546;-75
2022/05/13 06:24:10;;;;;;;7.00;4.50;;;12.60;92.00;;;;;;5103562;28;20444;-75
2022/05/13 06:26:40;;;;;;;7.87;4.03;;;12.60;92.00;;;;;;5109539;28;20482;-75
2022/05/13 06:29:08;;;;;;;5.73;3.30;;;12.60;92.10;;;;;;5112491;28;20924;-75
2022/05/13 06:31:36;;;;;;;6.03;4.47;;;12.60;92.10;;;;;;5113959;28;20561;-75
2022/05/13 06:34:05;;;;;;;6.97;4.13;;;12.70;92.20;;;;;;5103871;28;20440;-75
2022/05/13 06:36:34;;;;;;;8.07;3.73;;;12.70;92.20;;;;;;5103258;28;20440;-75
2022/05/13 06:39:06;;;;;;;12.60;5.27;;;12.70;92.20;;;;;;5100605;28;20503;-75
2022/05/13 06:41:37;;;;;;;11.87;5.53;;;12.70;92.30;;;;;;5102609;28;21055;-75
2022/05/13 06:44:06;;;;;;;8.37;4.10;;;12.70;92.30;;;;;;5100631;28;20510;-75
2022/05/13 06:46:35;;;;;;;8.50;4.10;;;12.70;92.30;;;;;;5102819;28;20439;-75
2022/05/13 06:49:04;;;;;;;9.27;4.57;;;12.80;92.40;;;;;;5102665;28;20451;-75
2022/05/13 06:51:34;;;;;;;6.90;4.47;;;12.80;92.40;;;;;;5107391;28;21007;-76
2022/05/13 06:54:06;;;;;;;8.10;4.40;;;12.90;92.50;;;;;;5113486;28;20471;-75
2022/05/13 06:56:36;;;;;;;8.20;4.20;;;12.90;92.50;;;;;;5104047;28;20475;-76
2022/05/13 06:59:04;;;;;;;7.13;3.80;;;13.00;92.60;;;;;;5103719;28;20499;-76
2022/05/13 07:01:40;;;;;;;6.80;4.23;;;13.10;92.60;;;;;;5094108;28;20459;-76
2022/05/13 07:04:08;;;;;;;8.10;4.73;;;13.10;92.60;;;;;;5110567;28;20522;-76
2022/05/13 07:06:36;;;;;;;11.20;4.83;;;13.20;92.70;;;;;;5109431;28;20986;-75
2022/05/13 07:09:06;;;;;;;8.43;4.20;;;13.20;92.70;;;;;;5112763;28;20538;-75
2022/05/13 07:11:35;;;;;;;9.10;4.33;;;13.30;92.70;;;;;;5113870;28;20508;-75
2022/05/13 07:14:03;;;;;;;9.00;4.10;;;13.30;93.00;;;;;;5108144;28;20977;-76
2022/05/13 07:16:31;;;;;;;7.80;4.10;;;13.40;92.80;;;;;;5103425;28;20445;-76
2022/05/13 07:19:06;;;;;;;10.10;4.50;;;13.40;92.80;;;;;;5102260;28;20463;-75
2022/05/13 07:21:36;;;;;;;8.97;4.27;;;13.40;92.80;;;;;;5099237;28;20499;-75
2022/05/13 07:24:06;;;;;;;7.87;4.30;;;13.40;92.90;;;;;;5109493;28;20461;-75
2022/05/13 07:26:35;;;;;;;10.47;4.10;;;13.40;92.90;;;;;;5111589;28;20461;-75
2022/05/13 07:29:04;;;;;;;8.73;4.30;;;13.50;92.90;;;;;;5111747;28;20459;-75
2022/05/13 07:31:33;;;;;;;8.90;4.73;;;13.50;93.00;;;;;;5105088;28;20460;-75
2022/05/13 07:34:02;;;;;;;11.17;4.70;;;13.60;93.00;;;;;;5093337;28;20444;-76
2022/05/13 07:36:30;;;;;;;8.53;4.37;;;13.70;93.10;;;;;;5095623;28;20432;-75
2022/05/13 07:41:45;;;;;;;10.80;4.80;;;13.80;93.10;;;;;;5095648;28;21308;-76
2022/05/13 07:44:14;;;;;;;13.37;5.13;;;13.80;93.20;;;;;;5095499;28;20452;-76
2022/05/13 07:46:43;;;;;;;7.60;4.20;;;13.90;93.20;;;;;;5096765;28;20452;-75
2022/05/13 07:49:12;;;;;;;8.67;4.43;;;14.00;93.20;;;;;;5095377;28;20491;-76
2022/05/13 07:51:40;;;;;;;7.10;4.50;;;14.10;93.30;;;;;;5096659;28;20466;-75
2022/05/13 07:54:08;;;;;;;6.90;4.67;;;14.10;93.20;;;;;;5099714;28;20857;-76
2022/05/13 07:56:36;;;;;;;6.77;4.27;;;14.20;93.30;;;;;;5105408;28;20947;-76
2022/05/13 07:59:05;;;;;;;6.77;4.80;;;14.30;93.20;;;;;;5103829;28;20479;-76
2022/05/13 08:01:34;;;;;;;7.87;4.50;;;14.40;93.20;;;;;;5104474;28;20561;-76
2022/05/13 08:04:02;;;;;;;10.20;4.67;;;14.40;93.20;;;;;;5107390;28;20504;-76
2022/05/13 08:06:31;;;;;;;9.70;5.00;;;14.50;93.10;;;;;;5106151;28;20455;-76
2022/05/13 08:09:00;;;;;;;8.30;4.53;;;14.50;93.10;;;;;;5103630;28;20522;-76
2022/05/13 08:11:30;;;;;;;9.90;5.27;;;14.80;93.20;;;;;;5105088;28;20466;-75
2022/05/13 08:14:01;;;;;;;9.30;4.00;;;15.00;93.40;;;;;;5106084;28;20418;-76
2022/05/13 08:16:33;;;;;;;8.93;4.80;;;15.10;93.10;;;;;;5102894;28;20865;-77
2022/05/13 08:19:03;;;;;;;10.17;4.00;;;15.20;93.10;;;;;;5111891;28;20460;-76
2022/05/13 08:21:31;;;;;;;9.93;5.23;;;15.40;93.00;;;;;;5115429;28;20521;-76
2022/05/13 08:24:01;;;;;;;7.87;5.03;;;15.40;92.90;;;;;;5115026;28;20921;-76
2022/05/13 08:26:29;;;;;;;7.37;4.77;;;15.50;92.80;;;;;;5114967;28;20784;-76
2022/05/13 08:28:57;;;;;;;7.73;5.03;;;15.70;92.90;;;;;;5116537;28;20733;-76
2022/05/13 08:31:25;;;;;;;7.17;4.90;;;15.80;92.80;;;;;;5099733;28;20431;-76
2022/05/13 08:33:55;;;;;;;7.93;4.83;;;16.00;92.70;;;;;;5104711;28;20418;-76
2022/05/13 08:36:23;;;;;;;8.83;4.13;;;16.10;92.60;;;;;;5111245;28;20501;-76
2022/05/13 08:38:51;;;;;;;9.10;5.80;;;16.20;92.50;;;;;;5117412;28;20458;-76
2022/05/13 08:41:50;;;;;;;9.13;3.50;;;16.20;92.50;;;;;;5115763;28;20494;-76
2022/05/13 08:44:19;;;;;;;7.67;4.37;;;16.30;92.20;;;;;;5096820;28;20403;-77
2022/05/13 08:46:57;;;;;;;9.70;4.20;;;16.40;92.30;;;;;;5096388;28;20432;-76
2022/05/13 08:49:53;;;;;;;6.23;3.70;;;16.50;92.10;;;;;;5096668;28;20937;-76
2022/05/13 08:55:26;;;;;;;10.20;4.33;;;16.70;92.00;;;;;;5111213;28;20426;-77
2022/05/13 08:57:57;;;;;;;7.93;3.80;;;16.80;91.70;;;;;;5097722;28;20494;-76
2022/05/13 09:00:31;;;;;;;7.47;3.53;;;16.90;91.60;;;;;;5105254;28;20453;-76
2022/05/13 09:03:04;;;;;;;6.30;3.53;;;17.00;91.70;;;;;;5111781;28;20410;-77
2022/05/13 09:05:40;;;;;;;6.30;3.30;;;17.00;91.20;;;;;;5115360;28;20546;-76
2022/05/13 09:08:09;;;;;;;4.60;3.20;;;17.10;91.10;;;;;;5115271;28;20439;-76
2022/05/13 09:10:43;;;;;;;4.70;3.30;;;17.10;90.90;;;;;;5115349;28;20469;-76
2022/05/13 09:13:18;;;;;;;6.57;3.20;;;17.20;90.80;;;;;;5116641;28;20420;-76
2022/05/13 09:15:51;;;;;;;7.33;3.33;;;17.30;90.70;;;;;;5115453;28;20439;-76
2022/05/13 09:18:24;;;;;;;3.50;2.73;;;17.40;90.60;;;;;;5115363;28;20443;-76
2022/05/13 09:20:58;;;;;;;5.30;2.70;;;17.50;90.50;;;;;;5115113;28;20864;-76
2022/05/13 09:23:27;;;;;;;7.33;2.87;;;17.60;90.30;;;;;;5117003;28;20416;-76
2022/05/13 09:26:08;;;;;;;10.87;3.20;;;17.60;90.10;;;;;;5116674;28;20406;-77
2022/05/13 09:28:58;;;;;;;5.90;2.50;;;17.50;89.60;;;;;;5114981;28;20475;-76
2022/05/13 09:31:29;;;;;;;5.17;2.40;;;17.50;89.50;;;;;;5114847;28;20570;-76
2022/05/13 09:34:18;;;;;;;6.10;2.80;;;17.50;89.10;;;;;;5116349;28;20551;-76
2022/05/13 09:36:50;;;;;;;4.00;2.47;;;17.50;88.80;;;;;;5114888;28;20490;-76
2022/05/13 09:39:24;;;;;;;4.33;2.47;;;17.50;88.90;;;;;;5114704;28;20453;-76
2022/05/13 09:41:53;;;;;;;4.57;2.60;;;17.50;88.50;;;;;;5114683;28;20467;-76
2022/05/13 09:44:27;;;;;;;5.27;2.90;;;17.50;88.30;;;;;;5116406;28;20420;-76
2022/05/13 09:47:10;;;;;;;6.73;2.47;;;17.60;88.00;;;;;;5115505;28;20475;-76
2022/05/13 09:50:01;;;;;;;3.83;2.20;;;17.80;87.70;;;;;;5115449;28;20404;-77
2022/05/13 09:52:35;;;;;;;3.40;2.20;;;17.90;87.70;;;;;;5099602;28;20812;-77
2022/05/13 09:55:16;;;;;;;4.13;2.10;;;18.00;87.10;;;;;;5094730;28;20422;-76
2022/05/13 09:57:44;;;;;;;8.57;2.80;;;17.90;86.40;;;;;;5095112;28;20423;-76
2022/05/13 10:00:17;;;;;;;3.90;2.30;;;17.80;86.10;;;;;;5094037;28;20468;-76
2022/05/13 10:02:47;;;;;;;7.97;2.90;;;17.80;85.90;;;;;;5094207;28;20493;-76
2022/05/13 10:05:19;;;;;;;6.87;2.73;;;17.80;85.70;;;;;;5093924;28;20439;-76
2022/05/13 10:07:57;;;;;;;7.10;2.70;;;17.80;85.60;;;;;;5098400;28;20437;-76
2022/05/13 10:16:07;;;;;;;5.77;2.20;;;17.70;85.20;;;;;;5095718;28;20854;-76
2022/05/13 10:18:38;;;;;;;6.30;2.63;;;17.70;85.00;;;;;;5101163;28;20439;-76
2022/05/13 10:21:11;;;;;;;4.73;2.20;;;17.60;84.70;;;;;;5106409;28;20972;-76
2022/05/13 10:23:44;;;;;;;3.23;1.90;;;17.60;85.00;;;;;;5100574;28;20476;-76
2022/05/13 10:26:17;;;;;;;2.60;2.07;;;17.50;84.20;;;;;;5099390;28;20484;-76
2022/05/13 10:28:52;;;;;;;3.30;2.30;;;17.50;84.30;;;;;;5094881;28;20865;-77
2022/05/13 10:31:24;;;;;;;3.60;1.83;;;17.50;84.40;;;;;;5099080;28;20456;-76
2022/05/13 10:34:00;;;;;;;4.10;2.30;;;17.60;84.40;;;;;;5101666;28;21006;-76
2022/05/13 10:36:37;;;;;;;5.90;2.50;;;17.70;84.30;;;;;;5101867;28;20527;-77
2022/05/13 10:39:11;;;;;;;4.60;2.57;;;17.80;84.60;;;;;;5097509;28;20460;-77
2022/05/13 10:41:46;;;;;;;4.37;2.40;;;17.90;84.40;;;;;;5098434;28;20491;-76
2022/05/13 10:44:21;;;;;;;3.90;2.90;;;18.00;84.50;;;;;;5102975;28;20820;-76
2022/05/13 10:46:53;;;;;;;4.83;2.33;;;18.10;84.70;;;;;;5097189;28;20433;-76
2022/05/13 10:49:40;;;;;;;8.63;2.83;;;18.30;85.00;;;;;;5094271;28;20578;-77
2022/05/13 10:52:18;;;;;;;6.57;2.50;;;18.40;84.50;;;;;;5102885;28;20474;-76
2022/05/13 10:54:53;;;;;;;3.03;2.20;;;18.50;84.20;;;;;;5102594;28;20455;-76
2022/05/13 10:57:32;;;;;;;6.17;2.37;;;18.40;83.80;;;;;;5100640;28;20453;-76
2022/05/13 11:00:12;;;;;;;4.30;2.23;;;18.40;83.70;;;;;;5100690;28;20440;-76
2022/05/13 11:03:13;;;;;;;3.87;1.90;;;18.50;83.50;;;;;;5102818;28;20436;-76
2022/05/13 11:05:51;;;;;;;3.77;2.30;;;18.60;83.20;;;;;;5094038;28;20436;-77
2022/05/13 11:08:23;;;;;;;4.50;2.00;;;18.70;82.90;;;;;;5092805;28;20436;-76
2022/05/13 11:11:03;;;;;;;6.10;2.50;;;18.80;83.00;;;;;;5094055;28;20559;-76
2022/05/13 11:13:52;;;;;;;3.40;1.80;;;18.90;83.00;;;;;;5092580;28;20447;-77
2022/05/13 11:16:42;;;;;;;5.37;2.10;;;19.00;83.20;;;;;;5092753;28;20473;-76
2022/05/13 11:19:23;;;;;;;5.30;2.83;;;19.10;83.00;;;;;;5092817;28;20436;-76
2022/05/13 11:21:59;;;;;;;3.63;2.10;;;19.10;82.90;;;;;;5094667;28;20948;-77
2022/05/13 11:27:35;;;;;;;4.20;1.87;;;19.10;81.90;;;;;;5092936;28;20456;-77
2022/05/13 11:30:17;;;;;;;2.97;2.00;;;19.10;81.60;;;;;;5092569;28;20451;-76
2022/05/13 11:32:51;;;;;;;4.50;1.87;;;19.20;81.60;;;;;;5094253;28;20416;-77
2022/05/13 11:35:38;;;;;;;3.77;2.33;;;19.20;81.80;;;;;;5091381;28;20415;-77
2022/05/13 11:38:12;;;;;;;3.70;1.73;;;19.30;81.90;;;;;;5090448;28;20459;-77
2022/05/13 11:40:48;;;;;;;6.17;1.93;;;19.30;81.80;;;;;;5091589;28;20544;-77
2022/05/13 11:43:47;;;;;;;5.40;1.90;;;19.40;81.40;;;;;;5090941;28;20880;-76
2022/05/13 11:46:36;;;;;;;5.00;2.80;;;19.40;81.30;;;;;;5091732;28;20490;-77
2022/05/13 11:49:11;;;;;;;3.80;1.80;;;19.50;81.00;;;;;;5092679;28;20436;-77
2022/05/13 11:51:40;;;;;;;4.67;1.60;;;19.50;81.00;;;;;;5092155;28;20471;-76
2022/05/13 11:54:22;;;;;;;5.33;1.63;;;19.40;80.70;;;;;;5091996;28;20949;-77
2022/05/13 11:57:12;;;;;;;7.63;2.07;;;19.40;80.60;;;;;;5092292;28;20444;-76
2022/05/13 11:59:47;;;;;;;3.53;1.40;;;19.30;80.50;;;;;;5091923;28;20448;-76
2022/05/13 12:02:44;;;;;;;3.23;1.37;;;19.20;80.60;;;;;;5091760;28;20469;-76
2022/05/13 12:05:55;;;;;;;3.17;1.93;;;19.20;80.90;;;;;;5091677;28;20468;-76
2022/05/13 12:08:30;;;;;;;5.57;2.57;;;19.30;80.40;;;;;;5093388;28;20440;-76
2022/05/13 12:11:40;;;;;;;4.27;1.87;;;19.40;80.60;;;;;;5091964;28;20452;-76
2022/05/13 12:14:13;;;;;;;3.83;1.50;;;19.50;80.20;;;;;;5091824;28;20444;-76
2022/05/13 12:16:49;;;;;;;4.83;1.70;;;19.60;79.90;;;;;;5093390;28;20424;-76
2022/05/13 12:19:39;;;;;;;3.73;1.80;;;19.60;79.90;;;;;;5091892;28;20967;-76
2022/05/13 12:22:14;;;;;;;3.60;1.60;;;19.70;79.20;;;;;;5097146;28;20800;-76
2022/05/13 12:24:58;;;;;;;2.80;1.50;;;19.80;79.20;;;;;;5095451;28;20437;-76
2022/05/13 12:27:36;;;;;;;2.80;1.60;;;19.80;78.80;;;;;;5095829;28;20485;-77
2022/05/13 12:30:12;;;;;;;4.17;1.60;;;19.70;78.90;;;;;;5095583;28;20428;-76
2022/05/13 12:32:45;;;;;;;4.73;1.70;;;19.70;78.60;;;;;;5096871;28;20435;-76
2022/05/13 12:38:12;;;;;;;5.90;1.60;;;19.60;78.50;;;;;;5096567;28;20452;-76
2022/05/13 12:40:55;;;;;;;2.53;1.33;;;19.60;78.70;;;;;;5096643;28;20447;-76
2022/05/13 12:43:43;;;;;;;2.67;1.50;;;19.70;79.00;;;;;;5095418;28;20432;-76
2022/05/13 12:46:17;;;;;;;2.20;1.30;;;19.70;78.80;;;;;;5095034;28;20527;-76
2022/05/13 12:49:12;;;;;;;3.20;1.53;;;19.80;78.80;;;;;;5096660;28;20484;-76
2022/05/13 12:51:48;;;;;;;2.97;1.43;;;19.80;78.30;;;;;;5094966;28;20476;-76
2022/05/13 12:54:20;;;;;;;3.47;1.40;;;19.80;78.50;;;;;;5096472;28;20511;-76
2022/05/13 12:56:51;;;;;;;4.87;1.40;;;19.90;78.30;;;;;;5094985;28;20524;-76
2022/05/13 12:59:25;;;;;;;4.37;1.53;;;19.90;78.00;;;;;;5096554;28;20910;-76
2022/05/13 13:01:58;;;;;;;3.53;1.20;;;19.90;77.90;;;;;;5096171;28;21046;-77
2022/05/13 13:04:33;;;;;;;3.17;1.27;;;19.90;77.70;;;;;;5103298;28;20448;-78
2022/05/13 13:07:08;;;;;;;6.17;1.60;;;19.80;77.10;;;;;;5104546;28;20468;-78
2022/05/13 13:09:41;;;;;;;3.40;2.20;;;19.70;76.90;;;;;;5101849;28;20471;-77
2022/05/13 13:12:15;;;;;;;7.60;1.47;;;19.70;77.20;;;;;;5101707;28;20475;-78
2022/05/13 13:15:00;;;;;;;4.17;1.20;;;19.70;77.40;;;;;;5102564;28;20507;-77
2022/05/13 13:17:39;;;;;;;4.77;1.40;;;19.70;77.30;;;;;;5099391;28;20510;-77
2022/05/13 13:20:12;;;;;;;3.97;2.17;;;19.70;77.20;;;;;;5100692;28;20432;-77
2022/05/13 13:22:43;;;;;;;4.57;1.20;;;19.70;77.30;;;;;;5099680;28;20510;-77
2022/05/13 13:25:26;;;;;;;2.33;1.43;;;19.70;77.30;;;;;;5099377;28;20432;-77
2022/05/13 13:27:58;;;;;;;5.40;1.90;;;19.60;77.20;;;;;;5099671;28;20480;-78
2022/05/13 13:30:27;;;;;;;1.80;1.30;;;19.60;77.20;;;;;;5099884;28;20468;-78
2022/05/13 13:33:07;;;;;;;3.33;1.60;;;19.50;77.30;;;;;;5099013;28;20429;-78
2022/05/13 13:35:38;;;;;;;3.40;1.60;;;19.60;77.40;;;;;;5099439;28;20436;-78
2022/05/13 13:38:10;;;;;;;2.47;1.20;;;19.60;77.40;;;;;;5097935;28;20475;-78
2022/05/13 13:40:43;;;;;;;3.00;1.47;;;19.60;77.40;;;;;;5100189;28;20467;-79
2022/05/13 13:43:16;;;;;;;3.30;1.73;;;19.50;77.40;;;;;;5102946;28;20464;-78